Time;durP1;ratioP1;P1;durP2;ratioP2;P2;SDS_P1;SDS_P2;PMS_P1;PMS_P2;Temp;Humidity;BMP_temperature;BMP_pressure;BME280_temperature;BME280_humidity;BME280_pressure;Samples;Min_cycle;Max_cycle;Signal;HPM_P1;HPM_P2
2022/08/09 00:00:42;;;;;;;3.27;2.25;;;;;;;22.81;53.01;101008.66;435065;122;922554;-75
2022/08/09 00:01:47;;;;;;;8.20;2.66;;;;;;;22.81;53.02;101007.82;434859;122;922628;-75
2022/08/09 00:02:52;;;;;;;4.09;2.81;;;;;;;22.80;53.05;101006.15;434608;122;922593;-75
2022/08/09 00:03:55;;;;;;;4.56;2.27;;;;;;;22.80;53.05;101006.15;435031;122;922577;-75
2022/08/09 00:05:01;;;;;;;3.89;2.76;;;;;;;22.80;53.18;101006.15;432792;122;922627;-75
2022/08/09 00:06:06;;;;;;;4.56;2.93;;;;;;;22.79;53.31;101005.31;423456;125;922624;-75
2022/08/09 00:07:11;;;;;;;4.03;2.37;;;;;;;22.79;53.28;101010.88;423469;125;923025;-76
2022/08/09 00:08:14;;;;;;;3.99;2.52;;;;;;;22.80;53.39;101014.49;424142;125;923005;-75
2022/08/09 00:09:19;;;;;;;3.19;2.61;;;;;;;22.82;53.38;101003.92;423447;125;923133;-75
2022/08/09 00:10:25;;;;;;;3.70;2.21;;;;;;;22.81;53.41;101005.88;423529;125;923316;-75
2022/08/09 00:11:28;;;;;;;2.94;2.31;;;;;;;22.82;53.40;101009.48;422739;125;922617;-75
2022/08/09 00:12:33;;;;;;;2.51;2.28;;;;;;;22.81;53.39;101008.66;424837;123;922559;-75
2022/08/09 00:13:37;;;;;;;3.88;2.37;;;;;;;22.81;53.38;101008.66;424066;125;922530;-75
2022/08/09 00:14:40;;;;;;;6.50;2.97;;;;;;;22.80;53.34;101006.98;424116;125;923076;-75
2022/08/09 00:15:45;;;;;;;3.64;3.12;;;;;;;22.79;53.34;101010.88;435084;122;930566;-75
2022/08/09 00:16:50;;;;;;;2.66;2.43;;;;;;;22.77;53.34;101004.75;434958;121;922592;-75
2022/08/09 00:17:55;;;;;;;3.38;2.98;;;;;;;22.76;53.37;101007.84;435321;121;922582;-75
2022/08/09 00:19:00;;;;;;;3.43;2.95;;;;;;;22.73;53.42;101006.45;434895;121;922591;-75
2022/08/09 00:20:06;;;;;;;4.49;3.04;;;;;;;22.72;53.46;101015.91;435283;122;922554;-75
2022/08/09 00:21:11;;;;;;;4.02;3.16;;;;;;;22.72;53.58;101015.06;435219;121;922942;-76
2022/08/09 00:22:15;;;;;;;3.77;2.78;;;;;;;22.71;53.66;101007.84;435402;121;922620;-75
2022/08/09 00:23:20;;;;;;;4.65;3.60;;;;;;;22.71;53.76;101013.40;435324;121;922854;-75
2022/08/09 00:24:25;;;;;;;4.24;2.57;;;;;;;22.71;53.83;101008.70;432662;122;922667;-75
2022/08/09 00:25:30;;;;;;;4.21;2.72;;;;;;;22.70;53.86;101018.12;435280;122;922704;-75
2022/08/09 00:26:35;;;;;;;4.96;3.07;;;;;;;22.70;53.91;101020.91;435309;122;923024;-75
2022/08/09 00:27:38;;;;;;;3.74;3.06;;;;;;;22.71;53.93;101017.05;435448;121;922612;-75
2022/08/09 00:28:43;;;;;;;4.30;2.64;;;;;;;22.71;53.99;101022.61;435248;120;922508;-75
2022/08/09 00:29:48;;;;;;;3.68;2.77;;;;;;;22.71;54.03;101017.05;433655;121;923031;-75
2022/08/09 00:30:55;;;;;;;3.14;2.74;;;;;;;22.72;54.12;101013.13;438247;120;922717;-75
2022/08/09 00:31:58;;;;;;;3.42;3.03;;;;;;;22.72;54.01;101015.06;439947;120;922537;-75
2022/08/09 00:33:04;;;;;;;4.72;2.93;;;;;;;22.71;54.09;101017.05;432067;122;922538;-75
2022/08/09 00:34:08;;;;;;;3.45;2.81;;;;;;;22.73;54.13;101025.08;446822;118;923072;-75
2022/08/09 00:35:13;;;;;;;4.42;3.21;;;;;;;22.73;54.18;101025.08;450192;118;923105;-75
2022/08/09 00:36:19;;;;;;;4.76;3.04;;;;;;;22.72;54.19;101009.51;450164;118;922592;-75
2022/08/09 00:37:23;;;;;;;3.55;2.86;;;;;;;22.71;54.10;101011.48;450305;118;922552;-75
2022/08/09 00:38:26;;;;;;;5.97;2.92;;;;;;;22.71;54.02;101005.93;450242;118;922501;-75
2022/08/09 00:39:31;;;;;;;5.11;3.16;;;;;;;22.70;53.95;101012.56;450135;118;930543;-75
2022/08/09 00:40:37;;;;;;;3.95;3.11;;;;;;;22.68;53.88;101009.23;447519;118;922729;-75
2022/08/09 00:41:41;;;;;;;3.44;3.09;;;;;;;22.65;53.92;101009.81;450230;118;922560;-75
2022/08/09 00:42:45;;;;;;;4.06;3.64;;;;;;;22.64;53.96;101013.70;447257;118;922504;-75
2022/08/09 00:43:51;;;;;;;3.07;2.73;;;;;;;22.63;54.01;101003.69;447336;118;922906;-75
2022/08/09 00:44:55;;;;;;;4.23;3.23;;;;;;;22.63;54.07;101009.25;447409;117;922614;-75
2022/08/09 00:45:59;;;;;;;5.21;3.40;;;;;;;22.63;54.09;101006.47;450291;117;922622;-75
2022/08/09 00:47:04;;;;;;;4.81;3.09;;;;;;;22.63;54.05;101013.98;450211;117;922561;-75
2022/08/09 00:48:08;;;;;;;5.15;3.39;;;;;;;22.62;54.00;101004.80;450571;117;922737;-75
2022/08/09 00:49:13;;;;;;;4.53;2.74;;;;;;;22.60;54.05;101007.05;450756;117;922575;-76
2022/08/09 00:50:18;;;;;;;3.38;3.08;;;;;;;22.59;54.13;101005.39;450784;117;923072;-75
2022/08/09 00:51:21;;;;;;;3.03;2.72;;;;;;;22.59;54.17;101002.61;450977;117;922588;-75
2022/08/09 00:52:26;;;;;;;3.55;3.25;;;;;;;22.59;54.19;101010.94;450743;117;922703;-75
2022/08/09 00:53:31;;;;;;;5.76;3.28;;;;;;;22.58;54.24;101005.66;451654;117;922632;-75
2022/08/09 00:54:36;;;;;;;3.81;3.24;;;;;;;22.56;54.25;101008.72;451905;117;922782;-75
2022/08/09 00:55:39;;;;;;;3.56;3.08;;;;;;;22.55;54.19;101007.05;451956;117;922568;-75
2022/08/09 00:56:44;;;;;;;5.09;3.38;;;;;;;22.55;54.18;101004.27;451702;117;930522;-75
2022/08/09 00:57:47;;;;;;;3.79;3.26;;;;;;;22.55;54.18;101006.24;452044;117;922530;-75
2022/08/09 00:58:52;;;;;;;3.89;2.89;;;;;;;22.53;54.16;101011.24;451914;117;922470;-75
2022/08/09 00:59:55;;;;;;;5.24;3.11;;;;;;;22.51;54.17;101014.30;452075;117;923037;-75
2022/08/09 01:01:03;;;;;;;4.08;3.03;;;;;;;22.50;54.15;101007.07;451857;117;923143;-75
2022/08/09 01:02:07;;;;;;;4.62;3.09;;;;;;;22.49;54.14;101002.66;451889;117;922561;-75
2022/08/09 01:03:18;;;;;;;4.25;2.38;;;;;;;22.48;54.17;100995.42;452098;117;922546;-76
2022/08/09 01:04:45;;;;;;;2.91;2.61;;;;;;;22.46;54.08;100995.70;451655;117;930664;-75
2022/08/09 01:05:53;;;;;;;4.97;3.36;;;;;;;22.46;54.05;101001.25;436765;121;922524;-75
2022/08/09 01:07:17;;;;;;;4.02;3.34;;;;;;;22.44;54.04;100997.08;436753;121;922555;-75
2022/08/09 01:08:39;;;;;;;4.47;2.99;;;;;;;22.45;54.04;101004.31;436760;121;922610;-75
2022/08/09 01:09:52;;;;;;;3.84;2.76;;;;;;;22.42;54.12;101007.67;435545;121;922555;-75
2022/08/09 01:11:12;;;;;;;4.16;3.02;;;;;;;22.41;54.19;101001.28;436711;121;922766;-75
2022/08/09 01:12:43;;;;;;;3.97;3.01;;;;;;;22.41;54.25;101003.22;436576;121;922801;-75
2022/08/09 01:13:56;;;;;;;3.31;2.65;;;;;;;22.39;54.23;101011.83;436413;121;923022;-75
2022/08/09 01:15:04;;;;;;;4.63;2.88;;;;;;;22.38;54.28;101001.02;436966;120;930585;-75
2022/08/09 01:16:11;;;;;;;3.27;2.86;;;;;;;22.36;54.33;100995.74;439745;120;923030;-75
2022/08/09 01:17:18;;;;;;;3.42;3.03;;;;;;;22.36;54.38;101006.02;439730;120;923116;-75
2022/08/09 01:18:26;;;;;;;3.68;2.61;;;;;;;22.35;54.38;100999.63;439706;120;922497;-76
2022/08/09 01:19:49;;;;;;;3.46;2.69;;;;;;;22.35;54.39;101004.35;439813;120;922572;-75
2022/08/09 01:21:25;;;;;;;4.34;3.09;;;;;;;22.36;54.41;101011.58;437858;120;923164;-76
2022/08/09 01:22:56;;;;;;;5.15;2.82;;;;;;;22.35;54.50;101010.74;440229;120;922581;-75
2022/08/09 01:24:05;;;;;;;4.86;3.17;;;;;;;22.35;54.54;100998.80;439713;120;923113;-75
2022/08/09 01:25:27;;;;;;;2.81;2.58;;;;;;;22.33;54.48;101003.79;439219;120;923085;-75
2022/08/09 01:26:50;;;;;;;3.95;2.62;;;;;;;22.31;54.54;101008.81;433908;122;922783;-76
2022/08/09 01:27:57;;;;;;;5.55;2.48;;;;;;;22.28;54.70;101007.42;439775;120;923131;-75
2022/08/09 01:29:02;;;;;;;4.05;2.34;;;;;;;22.27;54.69;101003.00;439815;120;923187;-75
2022/08/09 01:30:09;;;;;;;4.17;2.69;;;;;;;22.26;54.72;101001.33;437606;120;930519;-75
2022/08/09 01:31:17;;;;;;;3.38;3.05;;;;;;;22.26;54.73;101006.05;443737;119;922522;-75
2022/08/09 01:32:40;;;;;;;2.98;2.64;;;;;;;22.26;54.79;101006.05;441485;119;922609;-75
2022/08/09 01:33:47;;;;;;;6.52;2.96;;;;;;;22.27;54.82;101010.50;442473;119;922669;-75
2022/08/09 01:34:52;;;;;;;4.01;3.26;;;;;;;22.26;54.89;101000.50;436759;121;923170;-76
2022/08/09 01:36:13;;;;;;;3.88;2.56;;;;;;;22.24;55.04;100997.16;436730;121;922759;-75
2022/08/09 01:37:21;;;;;;;4.50;2.84;;;;;;;22.24;54.96;100997.16;436647;121;923247;-75
2022/08/09 01:38:29;;;;;;;4.04;2.54;;;;;;;22.23;55.00;101003.83;435765;121;923121;-75
2022/08/09 01:39:35;;;;;;;3.83;2.62;;;;;;;22.22;55.09;101005.77;436740;121;923166;-76
2022/08/09 01:40:42;;;;;;;4.13;2.88;;;;;;;22.23;54.96;101003.83;436714;121;923527;-75
2022/08/09 01:41:48;;;;;;;2.77;2.57;;;;;;;22.24;54.82;100999.94;436767;121;922559;-75
2022/08/09 01:42:55;;;;;;;3.66;2.86;;;;;;;22.23;54.63;101001.88;436266;121;922895;-75
2022/08/09 01:44:01;;;;;;;4.58;3.07;;;;;;;22.23;54.53;101001.05;437618;117;923082;-75
2022/08/09 01:45:07;;;;;;;2.88;2.37;;;;;;;22.21;54.43;101006.07;451869;117;922614;-76
2022/08/09 01:46:11;;;;;;;3.73;2.83;;;;;;;22.19;54.44;101005.51;451815;117;922555;-75
2022/08/09 01:47:17;;;;;;;4.07;2.57;;;;;;;22.17;54.45;101003.00;451767;117;922535;-75
2022/08/09 01:48:22;;;;;;;9.45;3.35;;;;;;;22.16;54.50;101006.09;451870;117;922536;-75
2022/08/09 01:49:29;;;;;;;3.53;2.54;;;;;;;22.15;54.57;100996.08;451818;117;923153;-76
2022/08/09 01:50:36;;;;;;;3.81;3.05;;;;;;;22.14;54.66;100997.19;451753;117;922507;-76
2022/08/09 01:51:48;;;;;;;4.11;2.77;;;;;;;22.12;54.66;100999.41;451528;117;922537;-74
2022/08/09 01:52:55;;;;;;;3.47;2.46;;;;;;;22.11;54.67;101000.55;451358;117;922729;-75
2022/08/09 01:54:01;;;;;;;3.58;3.05;;;;;;;22.10;54.69;101008.05;451803;117;922716;-75
2022/08/09 01:55:05;;;;;;;3.78;2.75;;;;;;;22.09;54.78;101005.53;451879;117;922704;-75
2022/08/09 01:56:13;;;;;;;3.65;2.91;;;;;;;22.08;54.82;101001.92;451832;117;922929;-75
2022/08/09 01:57:36;;;;;;;3.01;2.61;;;;;;;22.08;54.89;101003.87;451914;117;922857;-75
2022/08/09 01:58:42;;;;;;;2.69;2.46;;;;;;;22.09;54.95;101023.03;450878;117;923114;-76
2022/08/09 01:59:50;;;;;;;4.19;2.75;;;;;;;22.10;54.94;101018.31;451892;117;922664;-75
2022/08/09 02:00:56;;;;;;;4.71;2.77;;;;;;;22.09;54.82;101009.15;451794;117;922635;-75
2022/08/09 02:02:00;;;;;;;3.52;2.47;;;;;;;22.09;54.75;101006.37;451851;117;922511;-75
2022/08/09 02:03:06;;;;;;;3.91;3.03;;;;;;;22.08;54.71;101001.09;451886;117;923174;-75
2022/08/09 02:04:14;;;;;;;3.27;2.57;;;;;;;22.07;54.65;101008.59;451774;117;930523;-75
2022/08/09 02:05:20;;;;;;;3.58;2.99;;;;;;;22.06;54.61;101018.02;446285;117;923195;-75
2022/08/09 02:07:56;;;;;;;4.76;3.26;;;;;;;22.04;54.55;101007.22;437841;120;922558;-75
2022/08/09 02:09:01;;;;;;;4.04;3.13;;;;;;;22.04;54.42;101000.83;437772;120;922576;-76
2022/08/09 02:10:08;;;;;;;2.71;2.51;;;;;;;22.02;54.40;101011.38;439911;120;922575;-75
2022/08/09 02:11:13;;;;;;;3.77;2.61;;;;;;;22.01;54.48;101021.65;439653;120;930211;-75
2022/08/09 02:12:21;;;;;;;3.77;2.88;;;;;;;22.01;54.53;101015.26;439683;120;923023;-75
2022/08/09 02:13:26;;;;;;;3.94;2.54;;;;;;;22.02;54.49;101011.38;439723;120;922622;-75
2022/08/09 02:14:31;;;;;;;3.00;2.73;;;;;;;22.02;54.51;101022.48;437861;120;922576;-75
2022/08/09 02:15:37;;;;;;;4.09;3.13;;;;;;;22.01;54.52;101024.42;433659;122;922528;-75
2022/08/09 02:16:43;;;;;;;6.61;2.95;;;;;;;22.01;54.52;101013.31;433755;122;922820;-75
2022/08/09 02:17:50;;;;;;;6.11;3.02;;;;;;;22.02;54.52;101019.70;441004;120;922882;-75
2022/08/09 02:18:56;;;;;;;3.27;2.97;;;;;;;22.01;54.49;101016.09;440057;120;922890;-75
2022/08/09 02:19:59;;;;;;;3.21;2.88;;;;;;;22.02;54.49;101028.03;441497;120;923461;-75
2022/08/09 02:21:10;;;;;;;3.28;2.78;;;;;;;22.00;54.53;101028.31;441332;120;930535;-75
2022/08/09 02:22:28;;;;;;;4.06;2.37;;;;;;;22.01;54.49;101027.20;440155;120;922602;-75
2022/08/09 02:23:45;;;;;;;3.50;2.94;;;;;;;22.01;54.40;101029.98;440383;120;923084;-76
2022/08/09 02:24:52;;;;;;;4.61;3.19;;;;;;;22.00;54.37;101035.80;441378;120;923127;-75
2022/08/09 02:25:58;;;;;;;3.77;3.01;;;;;;;22.00;54.34;101031.09;441437;120;923683;-75
2022/08/09 02:27:05;;;;;;;3.23;2.62;;;;;;;22.00;54.35;101035.80;441429;120;922548;-75
2022/08/09 02:28:18;;;;;;;3.02;2.64;;;;;;;22.00;54.28;101036.64;441419;120;923141;-75
2022/08/09 02:29:24;;;;;;;6.22;2.70;;;;;;;21.99;54.26;101031.39;441433;120;922521;-75
2022/08/09 02:30:31;;;;;;;2.92;2.66;;;;;;;21.99;54.27;101034.16;428468;122;923074;-75
2022/08/09 02:31:37;;;;;;;3.28;2.74;;;;;;;21.97;54.25;101028.88;425988;122;923253;-75
2022/08/09 02:32:44;;;;;;;4.18;3.23;;;;;;;21.97;54.21;101034.44;419432;124;922652;-75
2022/08/09 02:33:53;;;;;;;7.77;2.92;;;;;;;21.97;54.20;101030.83;436014;120;923109;-75
2022/08/09 02:35:02;;;;;;;3.64;2.82;;;;;;;21.94;54.28;101031.36;441324;120;923083;-75
2022/08/09 02:36:11;;;;;;;5.34;3.18;;;;;;;21.92;54.25;101030.80;439534;120;922627;-75
2022/08/09 02:37:19;;;;;;;5.19;3.35;;;;;;;21.90;54.33;101030.23;450410;117;922530;-75
2022/08/09 02:38:30;;;;;;;4.78;2.67;;;;;;;21.87;54.29;101028.03;450471;117;922574;-75
2022/08/09 02:39:39;;;;;;;4.14;3.23;;;;;;;21.84;54.34;101029.41;450454;117;922627;-76
2022/08/09 02:40:45;;;;;;;5.98;2.59;;;;;;;21.82;54.46;101037.20;449921;117;922645;-75
2022/08/09 02:42:05;;;;;;;3.51;3.07;;;;;;;21.82;54.43;101041.92;450135;118;922514;-75
2022/08/09 02:43:11;;;;;;;3.56;2.46;;;;;;;21.81;54.46;101038.30;450179;118;922846;-75
2022/08/09 02:44:21;;;;;;;5.68;2.37;;;;;;;21.81;54.51;101031.91;450175;118;922474;-75
2022/08/09 02:45:36;;;;;;;4.03;3.23;;;;;;;21.80;54.44;101031.08;450132;117;922605;-75
2022/08/09 02:46:40;;;;;;;3.31;2.60;;;;;;;21.81;54.42;101031.91;450117;118;922568;-75
2022/08/09 02:47:45;;;;;;;3.89;2.80;;;;;;;21.81;54.34;101027.20;450185;118;922890;-75
2022/08/09 02:48:51;;;;;;;2.69;2.42;;;;;;;21.81;54.28;101034.69;450149;117;922484;-75
2022/08/09 02:50:06;;;;;;;3.59;2.77;;;;;;;21.81;54.33;101032.75;450108;118;922669;-75
2022/08/09 02:51:12;;;;;;;4.53;2.93;;;;;;;21.79;54.26;101034.97;449709;117;922645;-75
2022/08/09 02:52:19;;;;;;;2.58;2.36;;;;;;;21.78;54.20;101036.06;450121;118;922654;-75
2022/08/09 02:53:28;;;;;;;3.23;2.18;;;;;;;21.75;54.22;101044.97;442730;119;923126;-75
2022/08/09 02:54:33;;;;;;;5.95;2.62;;;;;;;21.70;54.13;101031.09;436303;120;923185;-75
2022/08/09 02:55:39;;;;;;;2.51;2.31;;;;;;;21.68;54.20;101038.84;433830;121;923072;-75
2022/08/09 02:56:47;;;;;;;2.83;2.62;;;;;;;21.65;54.34;101036.64;433806;122;923790;-75
2022/08/09 02:57:55;;;;;;;3.01;2.74;;;;;;;21.64;54.50;101034.97;441048;119;923163;-75
2022/08/09 02:59:03;;;;;;;2.86;2.66;;;;;;;21.64;54.75;101035.80;433777;122;922621;-75
2022/08/09 03:01:21;;;;;;;5.09;2.46;;;;;;;21.78;54.91;101038.84;482262;110;946822;-74
2022/08/09 03:02:27;;;;;;;3.41;2.86;;;;;;;21.69;54.84;101034.97;470471;112;922550;-74
2022/08/09 03:03:32;;;;;;;3.26;2.63;;;;;;;21.69;54.81;101028.58;473760;112;922524;-74
2022/08/09 03:04:39;;;;;;;5.19;2.40;;;;;;;21.70;54.86;101030.25;470425;112;922599;-74
2022/08/09 03:05:43;;;;;;;4.35;2.37;;;;;;;21.71;54.90;101037.48;465949;112;923009;-75
2022/08/09 03:06:48;;;;;;;4.74;2.61;;;;;;;21.73;54.96;101040.78;465171;113;922995;-75
2022/08/09 03:07:54;;;;;;;2.88;2.17;;;;;;;21.74;55.00;101045.23;465377;114;922606;-75
2022/08/09 03:08:59;;;;;;;4.45;2.51;;;;;;;21.75;55.11;101047.73;465396;114;923250;-75
2022/08/09 03:10:03;;;;;;;3.72;2.30;;;;;;;21.79;55.12;101050.78;465318;113;930539;-75
2022/08/09 03:11:07;;;;;;;2.94;2.56;;;;;;;21.80;55.10;101053.29;465363;114;923649;-75
2022/08/09 03:12:13;;;;;;;3.76;2.58;;;;;;;21.82;55.08;101050.24;465331;114;922613;-75
2022/08/09 03:13:18;;;;;;;2.84;2.21;;;;;;;21.83;55.12;101055.50;465518;113;923115;-75
2022/08/09 03:14:22;;;;;;;2.97;2.67;;;;;;;21.85;55.01;101053.28;465370;114;923453;-75
2022/08/09 03:15:28;;;;;;;2.68;2.48;;;;;;;21.87;54.94;101051.08;465005;113;922570;-75
2022/08/09 03:16:34;;;;;;;3.52;2.61;;;;;;;21.89;54.83;101048.00;462280;114;922755;-75
2022/08/09 03:17:39;;;;;;;3.49;2.57;;;;;;;21.89;54.78;101046.06;464530;114;922560;-75
2022/08/09 03:18:44;;;;;;;3.59;2.75;;;;;;;21.89;54.79;101048.00;465502;114;922987;-75
2022/08/09 03:19:48;;;;;;;2.98;2.69;;;;;;;21.88;54.69;101044.42;465361;114;922592;-76
2022/08/09 03:20:55;;;;;;;4.32;3.21;;;;;;;21.87;54.67;101042.75;462096;114;922800;-75
2022/08/09 03:22:00;;;;;;;4.21;2.62;;;;;;;21.85;54.59;101039.41;465359;114;922664;-75
2022/08/09 03:23:05;;;;;;;3.35;2.88;;;;;;;21.84;54.65;101045.23;465307;114;922916;-75
2022/08/09 03:24:10;;;;;;;6.84;2.99;;;;;;;21.83;54.70;101040.81;464084;114;922589;-75
2022/08/09 03:25:15;;;;;;;3.79;2.74;;;;;;;21.81;54.75;101043.86;464658;114;922512;-75
2022/08/09 03:26:21;;;;;;;6.37;3.40;;;;;;;21.82;54.75;101047.47;462402;114;922545;-75
2022/08/09 03:27:27;;;;;;;3.78;3.14;;;;;;;21.83;54.76;101047.17;464328;114;922624;-75
2022/08/09 03:28:34;;;;;;;4.24;3.45;;;;;;;21.83;54.79;101046.36;462154;114;922525;-75
2022/08/09 03:29:38;;;;;;;5.16;3.37;;;;;;;21.83;54.79;101047.17;465385;114;922479;-75
2022/08/09 03:30:44;;;;;;;4.46;3.02;;;;;;;21.82;54.88;101045.53;463024;114;922629;-75
2022/08/09 03:31:51;;;;;;;4.29;3.03;;;;;;;21.83;54.98;101049.14;465221;114;922591;-75
2022/08/09 03:32:57;;;;;;;5.15;3.21;;;;;;;21.84;55.17;101037.73;464301;114;922571;-75
2022/08/09 03:34:02;;;;;;;3.26;2.93;;;;;;;21.87;55.33;101041.91;465408;112;922501;-75
2022/08/09 03:35:10;;;;;;;3.94;2.84;;;;;;;21.90;55.48;101044.11;465357;114;923285;-75
2022/08/09 03:36:14;;;;;;;4.32;2.74;;;;;;;21.93;55.57;101044.41;462386;114;922528;-75
2022/08/09 03:37:19;;;;;;;3.54;3.24;;;;;;;21.95;55.53;101039.42;465330;114;922882;-75
2022/08/09 03:38:24;;;;;;;4.73;3.29;;;;;;;21.99;55.59;101045.27;462177;114;923051;-75
2022/08/09 03:39:29;;;;;;;3.09;2.88;;;;;;;22.01;55.57;101049.42;465034;114;922828;-75
2022/08/09 03:40:35;;;;;;;3.13;2.74;;;;;;;22.04;55.65;101046.09;464436;114;922627;-75
2022/08/09 03:41:39;;;;;;;5.51;3.49;;;;;;;22.08;55.69;101045.53;465468;114;922569;-75
2022/08/09 03:42:44;;;;;;;5.20;3.52;;;;;;;22.10;55.71;101049.70;464136;114;922748;-76
2022/08/09 03:43:47;;;;;;;4.49;3.33;;;;;;;22.14;55.63;101044.41;465538;114;922617;-76
2022/08/09 03:44:52;;;;;;;4.13;3.22;;;;;;;22.15;55.54;101044.14;462249;114;922501;-76
2022/08/09 03:45:57;;;;;;;6.27;3.68;;;;;;;22.18;55.43;101048.28;464948;114;922737;-76
2022/08/09 03:47:02;;;;;;;4.03;3.03;;;;;;;22.20;55.37;101046.06;462311;114;922546;-76
2022/08/09 03:48:07;;;;;;;4.74;3.32;;;;;;;22.22;55.38;101044.66;465387;114;922937;-76
2022/08/09 03:49:13;;;;;;;4.84;3.76;;;;;;;22.24;55.37;101052.72;465275;114;922602;-76
2022/08/09 03:50:21;;;;;;;4.52;3.72;;;;;;;22.27;55.22;101057.73;464754;114;923202;-76
2022/08/09 03:51:28;;;;;;;3.94;3.20;;;;;;;22.28;54.99;101053.81;464041;114;922970;-76
2022/08/09 03:52:35;;;;;;;4.00;3.40;;;;;;;22.29;54.94;101049.93;461781;114;922675;-76
2022/08/09 03:53:39;;;;;;;3.82;3.41;;;;;;;22.30;54.91;101052.44;465331;114;922544;-75
2022/08/09 03:54:46;;;;;;;4.29;3.87;;;;;;;22.32;54.84;101052.16;465329;114;922584;-75
2022/08/09 03:55:51;;;;;;;5.66;3.44;;;;;;;22.33;54.76;101051.02;465086;114;923257;-76
2022/08/09 03:56:56;;;;;;;4.44;3.65;;;;;;;22.33;54.71;101040.74;465430;114;923436;-76
2022/08/09 03:58:00;;;;;;;4.47;3.27;;;;;;;22.34;54.70;101049.91;465278;114;923430;-76
2022/08/09 03:59:05;;;;;;;4.18;3.76;;;;;;;22.35;54.77;101038.53;464258;114;922497;-76
2022/08/09 04:00:10;;;;;;;7.61;3.64;;;;;;;22.39;55.03;101053.52;465455;114;922600;-76
2022/08/09 04:01:16;;;;;;;5.06;3.27;;;;;;;22.39;55.03;101053.52;465208;114;922620;-76
2022/08/09 04:02:25;;;;;;;4.29;3.62;;;;;;;22.40;54.81;101049.63;465303;114;922560;-76
2022/08/09 04:03:30;;;;;;;3.69;3.22;;;;;;;22.43;54.72;101051.02;464913;114;923027;-75
2022/08/09 04:04:36;;;;;;;4.74;3.64;;;;;;;22.44;54.72;101045.16;462125;114;922362;-76
2022/08/09 04:05:41;;;;;;;3.74;3.44;;;;;;;22.47;54.72;101041.00;472774;112;922509;-76
2022/08/09 04:06:46;;;;;;;6.45;4.22;;;;;;;22.49;54.71;101046.28;473677;112;922543;-76
2022/08/09 04:07:51;;;;;;;4.66;4.05;;;;;;;22.51;54.67;101044.86;473681;112;922509;-76
2022/08/09 04:08:56;;;;;;;4.64;3.53;;;;;;;22.53;54.54;101044.59;473328;112;922637;-76
2022/08/09 04:09:59;;;;;;;4.52;3.87;;;;;;;22.55;54.56;101040.40;473949;112;922627;-76
2022/08/09 04:11:01;;;;;;;7.77;3.87;;;;;;;22.56;54.48;101047.63;473906;112;922597;-76
2022/08/09 04:12:13;;;;;;;4.79;3.63;;;;;;;22.57;54.44;101040.13;473880;112;922958;-76
2022/08/09 04:13:17;;;;;;;4.36;3.96;;;;;;;22.59;54.46;101040.69;470416;112;923071;-76
2022/08/09 04:14:21;;;;;;;5.82;4.29;;;;;;;22.59;54.39;101035.95;473770;112;922616;-76
2022/08/09 04:15:26;;;;;;;4.47;3.93;;;;;;;22.61;54.42;101036.48;464207;114;930959;-76
2022/08/09 04:16:33;;;;;;;4.62;3.72;;;;;;;22.62;54.48;101032.59;462238;114;922998;-76
2022/08/09 04:17:38;;;;;;;5.04;3.72;;;;;;;22.64;54.51;101043.44;465373;114;922595;-76
2022/08/09 04:18:43;;;;;;;3.53;3.23;;;;;;;22.65;54.54;101034.83;465151;114;922507;-76
2022/08/09 04:19:48;;;;;;;3.46;3.02;;;;;;;22.65;54.26;101032.05;465326;114;922562;-75
2022/08/09 04:20:53;;;;;;;4.98;3.99;;;;;;;22.65;53.90;101034.83;464420;114;922698;-73
2022/08/09 04:21:57;;;;;;;4.84;3.05;;;;;;;22.67;53.54;101034.52;465348;114;922600;-73
2022/08/09 04:23:00;;;;;;;7.33;3.27;;;;;;;22.66;53.36;101033.69;465321;113;922945;-75
2022/08/09 04:24:05;;;;;;;3.36;2.76;;;;;;;22.68;53.08;101037.02;465368;114;922488;-76
2022/08/09 04:25:08;;;;;;;4.98;2.84;;;;;;;22.70;52.87;101033.97;465377;114;922815;-76
2022/08/09 04:26:12;;;;;;;5.61;4.63;;;;;;;22.71;52.68;101036.51;465314;114;922522;-76
2022/08/09 04:27:15;;;;;;;5.68;4.64;;;;;;;22.72;52.57;101032.59;465447;114;922637;-76
2022/08/09 04:28:20;;;;;;;4.72;3.85;;;;;;;22.73;52.57;101028.70;465430;114;922561;-76
2022/08/09 04:29:25;;;;;;;5.32;2.86;;;;;;;22.76;52.46;101035.65;461973;114;922558;-76
2022/08/09 04:30:30;;;;;;;5.89;3.37;;;;;;;22.77;52.40;101040.91;466235;112;923053;-76
2022/08/09 04:31:33;;;;;;;5.11;3.88;;;;;;;22.79;52.33;101040.63;465408;114;922523;-75
2022/08/09 04:32:39;;;;;;;4.68;3.17;;;;;;;22.81;52.23;101036.45;462072;114;922620;-76
2022/08/09 04:33:43;;;;;;;3.57;3.29;;;;;;;22.81;52.19;101036.45;465544;112;923005;-76
2022/08/09 04:34:49;;;;;;;3.84;3.13;;;;;;;22.83;52.29;101041.70;470140;112;922563;-76
2022/08/09 04:35:54;;;;;;;4.39;3.49;;;;;;;22.84;52.19;101035.88;470159;112;922623;-76
2022/08/09 04:36:59;;;;;;;4.19;3.48;;;;;;;22.87;52.24;101042.83;471220;112;922547;-76
2022/08/09 04:38:02;;;;;;;3.79;2.97;;;;;;;22.88;52.23;101035.31;471188;112;930466;-75
2022/08/09 04:39:09;;;;;;;5.96;3.75;;;;;;;22.91;52.28;101037.52;471219;112;922548;-76
2022/08/09 04:40:16;;;;;;;4.78;3.49;;;;;;;22.93;52.30;101038.07;470893;112;923023;-76
2022/08/09 04:41:22;;;;;;;4.62;3.78;;;;;;;22.94;52.31;101040.55;468088;112;923047;-76
2022/08/09 04:42:28;;;;;;;5.13;3.55;;;;;;;22.96;52.31;101043.05;469997;112;923259;-76
2022/08/09 04:43:32;;;;;;;6.88;4.32;;;;;;;22.98;52.25;101040.83;471202;112;922441;-75
2022/08/09 04:44:37;;;;;;;4.99;4.29;;;;;;;22.99;52.34;101040.52;471023;112;930565;-76
2022/08/09 04:45:40;;;;;;;6.79;3.91;;;;;;;23.01;52.31;101031.89;471362;112;922592;-76
2022/08/09 04:46:45;;;;;;;10.77;4.38;;;;;;;23.03;52.29;101038.02;468090;112;922755;-76
2022/08/09 04:47:50;;;;;;;5.62;4.01;;;;;;;23.05;52.25;101038.54;467958;112;922447;-76
2022/08/09 04:48:55;;;;;;;6.24;4.03;;;;;;;23.09;52.07;101039.66;468111;112;922550;-76
2022/08/09 04:50:00;;;;;;;8.31;4.12;;;;;;;23.11;52.04;101045.73;471193;112;923033;-75
2022/08/09 04:51:03;;;;;;;4.46;3.31;;;;;;;23.12;52.04;101036.28;471386;112;922491;-75
2022/08/09 04:52:06;;;;;;;10.30;4.00;;;;;;;23.15;51.89;101035.73;471413;112;922515;-75
2022/08/09 04:53:10;;;;;;;6.68;3.49;;;;;;;23.16;51.84;101032.63;471099;112;922769;-76
2022/08/09 04:54:15;;;;;;;6.41;3.77;;;;;;;23.18;51.91;101038.75;471212;112;922469;-75
2022/08/09 04:55:19;;;;;;;4.88;3.61;;;;;;;23.19;51.89;101028.46;471368;112;922506;-76
2022/08/09 04:56:22;;;;;;;6.67;3.26;;;;;;;23.22;51.81;101034.27;471284;112;922591;-76
2022/08/09 04:57:27;;;;;;;3.56;3.22;;;;;;;23.24;51.70;101039.55;471041;112;923040;-76
2022/08/09 04:58:32;;;;;;;4.06;3.15;;;;;;;23.26;51.57;101037.33;467915;112;922789;-75
2022/08/09 04:59:36;;;;;;;3.55;2.96;;;;;;;23.28;51.55;101032.28;471237;112;922947;-75
2022/08/09 05:00:39;;;;;;;3.52;3.16;;;;;;;23.29;51.39;101026.44;471312;112;922852;-75
2022/08/09 05:01:44;;;;;;;4.83;2.92;;;;;;;23.32;51.33;101033.39;471077;112;923205;-75
2022/08/09 05:02:48;;;;;;;3.29;2.76;;;;;;;23.34;51.18;101030.30;471362;112;922541;-75
2022/08/09 05:03:53;;;;;;;3.28;2.88;;;;;;;23.36;51.03;101031.69;470701;112;922590;-76
2022/08/09 05:04:57;;;;;;;4.37;3.62;;;;;;;23.37;50.92;101033.36;469695;112;922573;-75
2022/08/09 05:06:05;;;;;;;3.55;2.89;;;;;;;23.40;50.80;101027.20;463584;114;922611;-76
2022/08/09 05:07:09;;;;;;;4.54;3.31;;;;;;;23.41;50.76;101020.52;465188;114;923023;-76
2022/08/09 05:08:14;;;;;;;3.62;2.92;;;;;;;23.44;50.69;101028.27;463775;114;922605;-75
2022/08/09 05:09:17;;;;;;;4.67;2.92;;;;;;;23.46;50.75;101026.08;465424;114;922945;-75